createdAt,value
2023-05-03T00:00:56.449Z,101642.09
2023-05-03T00:03:25.568Z,101640.03
2023-05-03T00:05:53.645Z,101631.69
2023-05-03T00:08:21.852Z,101635.72
2023-05-03T00:10:50.198Z,101644.72
2023-05-03T00:13:18.241Z,101641.38
2023-05-03T00:15:46.289Z,101644.13
2023-05-03T00:18:16.155Z,101635.53
2023-05-03T00:20:44.214Z,101638.59
2023-05-03T00:23:12.162Z,101634.53
2023-05-03T00:25:40.514Z,101642.72
2023-05-03T00:28:08.821Z,101637.75
2023-05-03T00:30:37.050Z,101635.09
2023-05-03T00:33:05.766Z,101628.19
2023-05-03T00:35:35.131Z,101635.38
2023-05-03T00:38:03.273Z,101625.75
2023-05-03T00:40:31.725Z,101633.66
2023-05-03T00:42:59.956Z,101625.00
2023-05-03T00:45:28.509Z,101628.62
2023-05-03T00:47:56.878Z,101634.03
2023-05-03T00:50:24.924Z,101627.88
2023-05-03T00:52:54.440Z,101630.59
2023-05-03T00:55:23.757Z,101629.84
2023-05-03T00:57:51.771Z,101638.81
2023-05-03T01:00:20.583Z,101631.84
2023-05-03T01:02:49.415Z,101635.62
2023-05-03T01:05:18.271Z,101639.19
2023-05-03T01:08:02.978Z,101642.09
2023-05-03T01:10:42.913Z,101645.00
2023-05-03T01:13:20.192Z,101641.53
2023-05-03T01:16:01.048Z,101643.69
2023-05-03T01:18:32.952Z,101639.53
2023-05-03T01:21:03.673Z,101629.91
2023-05-03T01:23:37.466Z,101636.16
2023-05-03T01:26:23.386Z,101640.69
2023-05-03T01:28:51.779Z,101634.47
2023-05-03T01:31:27.547Z,101646.16
2023-05-03T01:34:09.219Z,101640.97
2023-05-03T01:36:38.063Z,101641.94
2023-05-03T01:39:10.829Z,101634.94
2023-05-03T01:41:42.811Z,101636.78
2023-05-03T01:44:12.447Z,101636.87
2023-05-03T01:46:45.041Z,101639.53
2023-05-03T01:49:13.300Z,101642.22
2023-05-03T01:51:41.603Z,101642.28
2023-05-03T01:54:09.660Z,101639.63
2023-05-03T01:56:39.818Z,101648.41
2023-05-03T01:59:08.199Z,101645.00
2023-05-03T02:01:36.366Z,101641.53
2023-05-03T02:04:04.773Z,101643.47
2023-05-03T02:06:33.255Z,101649.69
2023-05-03T02:09:01.251Z,101655.94
2023-05-03T02:11:29.573Z,101663.03
2023-05-03T02:13:59.113Z,101662.28
2023-05-03T02:16:30.532Z,101672.16
2023-05-03T02:18:59.604Z,101666.09
2023-05-03T02:21:28.138Z,101663.56
2023-05-03T02:23:56.224Z,101672.41
2023-05-03T02:26:24.281Z,101673.31
2023-05-03T02:28:52.812Z,101664.59
2023-05-03T02:31:22.315Z,101672.53
2023-05-03T02:33:50.371Z,101675.31
2023-05-03T02:36:18.674Z,101674.59
2023-05-03T02:38:47.929Z,101668.56
2023-05-03T02:41:15.971Z,101678.28
2023-05-03T02:43:44.896Z,101681.84
2023-05-03T02:46:14.088Z,101680.19
2023-05-03T02:48:43.378Z,101681.94
2023-05-03T02:51:12.524Z,101683.72
2023-05-03T02:53:40.705Z,101681.09
2023-05-03T02:56:09.820Z,101692.56
2023-05-03T02:58:38.036Z,101689.88
2023-05-03T03:01:06.609Z,101684.69
2023-05-03T03:03:34.877Z,101689.09
2023-05-03T03:06:04.813Z,101686.50
2023-05-03T03:08:33.958Z,101689.19
2023-05-03T03:11:02.449Z,101691.88
2023-05-03T03:13:30.839Z,101690.13
2023-05-03T03:16:00.756Z,101684.87
2023-05-03T03:18:29.064Z,101685.78
2023-05-03T03:20:57.300Z,101695.44
2023-05-03T03:23:26.814Z,101685.69
2023-05-03T03:25:55.132Z,101688.31
2023-05-03T03:28:23.754Z,101690.06
2023-05-03T03:30:52.081Z,101689.16
2023-05-03T03:33:24.419Z,101691.84
2023-05-03T03:35:54.187Z,101691.06
2023-05-03T03:38:22.970Z,101691.81
2023-05-03T03:40:54.298Z,101692.66
2023-05-03T03:43:22.665Z,101696.16
2023-05-03T03:45:50.794Z,101703.00
2023-05-03T03:48:18.989Z,101697.75
2023-05-03T03:50:48.873Z,101698.53
2023-05-03T03:53:17.086Z,101699.41
2023-05-03T03:55:45.552Z,101711.59
2023-05-03T03:58:16.271Z,101710.69
2023-05-03T04:00:44.876Z,101711.59
2023-05-03T04:03:13.510Z,101721.19
2023-05-03T04:05:41.979Z,101729.00
2023-05-03T04:08:10.527Z,101717.50
2023-05-03T04:10:39.240Z,101727.94
2023-05-03T04:13:10.379Z,101731.34
2023-05-03T04:15:40.068Z,101735.63
2023-05-03T04:18:08.790Z,101743.44
2023-05-03T04:20:37.769Z,101734.50
2023-05-03T04:23:06.613Z,101737.16
2023-05-03T04:25:37.087Z,101743.09
2023-05-03T04:28:06.914Z,101741.31
2023-05-03T04:30:36.676Z,101746.44
2023-05-03T04:33:06.680Z,101752.59
2023-05-03T04:35:36.159Z,101753.25
2023-05-03T04:38:05.355Z,101763.72
2023-05-03T04:40:34.708Z,101770.66
2023-05-03T04:43:02.862Z,101767.91
2023-05-03T04:45:31.746Z,101771.28
2023-05-03T04:48:00.321Z,101767.81
2023-05-03T04:50:29.936Z,101771.16
2023-05-03T04:52:58.492Z,101768.31
2023-05-03T04:55:29.609Z,101775.09
2023-05-03T04:57:58.615Z,101773.22
2023-05-03T05:00:26.796Z,101778.28
2023-05-03T05:02:56.814Z,101779.84
2023-05-03T05:05:25.581Z,101779.75
2023-05-03T05:07:55.158Z,101782.22
2023-05-03T05:10:23.347Z,101782.09
2023-05-03T05:12:52.767Z,101789.06
2023-05-03T05:15:21.089Z,101788.84
2023-05-03T05:17:50.021Z,101787.00
2023-05-03T05:20:19.679Z,101783.19
2023-05-03T05:22:48.255Z,101780.34
2023-05-03T05:25:17.781Z,101788.09
2023-05-03T05:27:46.194Z,101787.84
2023-05-03T05:30:15.025Z,101790.09
2023-05-03T05:32:43.772Z,101785.34
2023-05-03T05:35:12.413Z,101793.75
2023-05-03T05:37:40.472Z,101792.66
2023-05-03T05:40:10.132Z,101793.25
2023-05-03T05:42:40.458Z,101803.53
2023-05-03T05:45:09.459Z,101809.03
2023-05-03T05:47:37.972Z,101804.22
2023-05-03T05:50:19.154Z,101802.97
2023-05-03T05:52:48.197Z,101801.19
2023-05-03T05:55:18.529Z,101800.59
2023-05-03T05:57:48.032Z,101806.75
2023-05-03T06:00:17.540Z,101809.91
2023-05-03T06:02:46.894Z,101807.75
2023-05-03T06:05:15.983Z,101806.16
2023-05-03T06:07:44.216Z,101813.72
2023-05-03T06:10:12.984Z,101814.09
2023-05-03T06:12:41.992Z,101819.13
2023-05-03T06:15:13.570Z,101817.13
2023-05-03T06:17:42.503Z,101816.28
2023-05-03T06:20:12.834Z,101819.41
2023-05-03T06:22:41.828Z,101823.00
2023-05-03T06:25:15.485Z,101820.72
2023-05-03T06:27:46.570Z,101817.47
2023-05-03T06:30:16.847Z,101825.97
2023-05-03T06:32:48.685Z,101821.78
2023-05-03T06:35:19.234Z,101819.16
2023-05-03T06:37:47.399Z,101834.78
2023-05-03T06:40:16.138Z,101824.94
2023-05-03T06:42:44.918Z,101820.69
2023-05-03T06:45:14.193Z,101833.28
2023-05-03T06:47:43.965Z,101834.13
2023-05-03T06:50:12.492Z,101825.63
2023-05-03T06:52:41.341Z,101821.53
2023-05-03T06:55:10.147Z,101827.13
2023-05-03T06:57:38.650Z,101826.78
2023-05-03T07:00:07.834Z,101823.28
2023-05-03T07:02:36.045Z,101832.00
2023-05-03T07:05:07.169Z,101826.00
2023-05-03T07:07:35.536Z,101825.44
2023-05-03T07:10:04.561Z,101826.87
2023-05-03T07:12:33.155Z,101828.28
2023-05-03T07:15:01.931Z,101830.94
2023-05-03T07:17:30.272Z,101823.41
2023-05-03T07:19:58.866Z,101823.59
2023-05-03T07:22:28.184Z,101824.91
2023-05-03T07:24:58.934Z,101821.19
2023-05-03T07:27:27.402Z,101821.13
2023-05-03T07:29:55.756Z,101818.81
2023-05-03T07:32:24.203Z,101822.06
2023-05-03T07:34:52.718Z,101816.37
2023-05-03T07:37:22.295Z,101822.84
2023-05-03T07:39:52.596Z,101822.31
2023-05-03T07:42:21.030Z,101807.13
2023-05-03T07:44:49.180Z,101809.87
2023-05-03T07:47:17.187Z,101815.41
2023-05-03T07:49:45.690Z,101806.50
2023-05-03T07:52:13.611Z,101805.88
2023-05-03T07:54:43.062Z,101809.25
2023-05-03T07:57:13.018Z,101800.69
2023-05-03T07:59:41.170Z,101804.09
2023-05-03T08:02:09.480Z,101803.53
2023-05-03T08:04:38.068Z,101807.38
2023-05-03T08:07:06.248Z,101805.81
2023-05-03T08:09:34.962Z,101812.22
2023-05-03T08:12:03.672Z,101811.69
2023-05-03T08:14:33.804Z,101813.44
2023-05-03T08:17:01.892Z,101805.94
2023-05-03T08:19:30.236Z,101806.53
2023-05-03T08:21:58.497Z,101802.22
2023-05-03T08:24:26.968Z,101806.87
2023-05-03T08:26:55.409Z,101803.59
2023-05-03T08:29:24.059Z,101806.06
2023-05-03T08:31:54.205Z,101800.09
2023-05-03T08:34:22.541Z,101803.69
2023-05-03T08:36:51.109Z,101793.53
2023-05-03T08:39:19.280Z,101795.56
2023-05-03T08:41:48.599Z,101802.87
2023-05-03T08:44:22.273Z,101809.03
2023-05-03T08:46:50.782Z,101806.00
2023-05-03T08:49:21.475Z,101806.63
2023-05-03T08:51:50.697Z,101796.16
2023-05-03T08:54:20.758Z,101799.41
2023-05-03T08:56:49.708Z,101800.53
2023-05-03T08:59:17.820Z,101796.66
2023-05-03T09:01:46.617Z,101797.97
2023-05-03T09:04:15.258Z,101805.41
2023-05-03T09:06:44.699Z,101804.81
2023-05-03T09:09:14.195Z,101801.84
2023-05-03T09:11:42.225Z,101798.00
2023-05-03T09:14:12.057Z,101800.41
2023-05-03T09:16:41.354Z,101798.59
2023-05-03T09:19:12.018Z,101791.25
2023-05-03T09:21:42.130Z,101802.19
2023-05-03T09:24:19.227Z,101802.72
2023-05-03T09:26:48.723Z,101793.97
2023-05-03T09:29:30.328Z,101790.19
2023-05-03T09:32:05.469Z,101789.56
2023-05-03T09:34:34.408Z,101793.56
2023-05-03T09:37:02.852Z,101787.78
2023-05-03T09:39:32.404Z,101785.19
2023-05-03T09:42:02.927Z,101787.66
2023-05-03T09:44:42.854Z,101788.16
2023-05-03T09:47:11.999Z,101787.44
2023-05-03T09:49:40.713Z,101791.81
2023-05-03T09:52:09.745Z,101785.00
2023-05-03T09:54:39.965Z,101783.03
2023-05-03T09:57:10.110Z,101780.25
2023-05-03T09:59:39.652Z,101789.03
2023-05-03T10:02:09.223Z,101781.03
2023-05-03T10:04:43.435Z,101788.22
2023-05-03T10:07:15.365Z,101781.31
2023-05-03T10:09:46.360Z,101776.09
2023-05-03T10:12:17.456Z,101775.06
2023-05-03T10:14:48.288Z,101771.28
2023-05-03T10:17:31.872Z,101770.00
2023-05-03T10:20:17.141Z,101768.47
2023-05-03T10:23:14.016Z,101778.91
2023-05-03T10:26:14.436Z,101773.00
2023-05-03T10:28:43.565Z,101771.19
2023-05-03T10:31:47.081Z,101761.91
2023-05-03T10:34:23.303Z,101767.31
2023-05-03T10:36:54.132Z,101760.19
2023-05-03T10:39:23.035Z,101762.28
2023-05-03T10:42:04.869Z,101755.63
2023-05-03T10:44:39.692Z,101757.81
2023-05-03T10:47:13.684Z,101752.91
2023-05-03T10:49:42.022Z,101764.12
2023-05-03T10:52:47.076Z,101759.56
2023-05-03T10:55:18.358Z,101757.25
2023-05-03T10:57:50.434Z,101763.31
2023-05-03T11:00:24.468Z,101765.78
2023-05-03T11:03:23.763Z,101751.75
2023-05-03T11:05:54.049Z,101748.37
2023-05-03T11:08:25.997Z,101757.06
2023-05-03T11:11:00.364Z,101751.78
2023-05-03T11:13:30.514Z,101751.84
2023-05-03T11:15:59.129Z,101752.53
2023-05-03T11:18:28.022Z,101750.22
2023-05-03T11:20:56.674Z,101747.28
2023-05-03T11:23:27.524Z,101752.78
2023-05-03T11:25:56.613Z,101753.56
2023-05-03T11:28:25.047Z,101746.00
2023-05-03T11:30:54.873Z,101747.59
2023-05-03T11:33:23.004Z,101739.59
2023-05-03T11:35:51.470Z,101740.25
2023-05-03T11:38:19.471Z,101734.47
2023-05-03T11:40:47.557Z,101728.81
2023-05-03T11:43:16.025Z,101718.78
2023-05-03T11:45:49.824Z,101724.50
2023-05-03T11:48:19.880Z,101728.72
2023-05-03T11:50:51.687Z,101736.09
2023-05-03T11:53:20.693Z,101729.53
2023-05-03T11:55:50.860Z,101728.66
2023-05-03T11:58:20.966Z,101731.03
2023-05-03T12:00:51.528Z,101726.00
2023-05-03T12:03:25.718Z,101738.19
2023-05-03T12:05:57.362Z,101730.78
2023-05-03T12:08:31.305Z,101735.47
2023-05-03T12:11:03.651Z,101729.03
2023-05-03T12:13:37.714Z,101727.69
2023-05-03T12:16:13.597Z,101727.63
2023-05-03T12:18:50.282Z,101722.66
2023-05-03T12:23:55.463Z,101713.78
2023-05-03T12:26:25.715Z,101712.50
2023-05-03T12:28:56.613Z,101712.94
2023-05-03T12:31:28.937Z,101717.69
2023-05-03T12:34:27.581Z,101712.75
2023-05-03T12:36:49.120Z,101712.56
2023-05-03T12:39:21.617Z,101710.38
2023-05-03T12:42:06.831Z,101708.00
2023-05-03T12:44:42.353Z,101704.94
2023-05-03T12:47:12.160Z,101699.25
2023-05-03T12:49:46.361Z,101699.53
2023-05-03T12:54:48.907Z,101698.06
2023-05-03T12:57:23.264Z,101695.91
2023-05-03T13:00:01.631Z,101689.09
2023-05-03T13:05:11.854Z,101686.72
2023-05-03T13:07:55.698Z,101678.38
2023-05-03T13:10:24.791Z,101679.00
2023-05-03T13:12:53.960Z,101678.84
2023-05-03T13:15:25.208Z,101671.41
2023-05-03T13:17:54.866Z,101662.75
2023-05-03T13:20:24.756Z,101668.75
2023-05-03T13:22:52.805Z,101672.69
2023-05-03T13:25:24.597Z,101661.91
2023-05-03T13:27:56.175Z,101667.22
2023-05-03T13:30:25.448Z,101657.81
2023-05-03T13:32:54.285Z,101663.63
2023-05-03T13:35:24.808Z,101653.97
2023-05-03T13:37:55.374Z,101654.69
2023-05-03T13:40:27.094Z,101645.53
2023-05-03T13:42:55.417Z,101645.22
2023-05-03T13:45:23.625Z,101637.00
2023-05-03T13:50:24.340Z,101643.59
2023-05-03T13:52:52.924Z,101638.28
2023-05-03T13:55:21.910Z,101636.84
2023-05-03T13:57:50.276Z,101632.09
2023-05-03T14:00:20.734Z,101631.03
2023-05-03T14:02:49.280Z,101626.56
2023-05-03T14:05:19.707Z,101622.63
2023-05-03T14:07:49.257Z,101623.44
2023-05-03T14:10:18.010Z,101624.62
2023-05-03T14:12:46.411Z,101631.53
2023-05-03T14:15:15.233Z,101626.19
2023-05-03T14:17:43.920Z,101625.38
2023-05-03T14:20:13.089Z,101615.22
2023-05-03T14:22:41.567Z,101613.66
2023-05-03T14:25:11.643Z,101604.22
2023-05-03T14:27:43.417Z,101610.94
2023-05-03T14:30:12.774Z,101610.16
2023-05-03T14:32:40.872Z,101599.84
2023-05-03T14:35:09.952Z,101603.34
2023-05-03T14:37:38.569Z,101600.00
2023-05-03T14:40:08.374Z,101593.53
2023-05-03T14:42:38.157Z,101595.81
2023-05-03T14:45:10.143Z,101597.22
2023-05-03T14:47:40.828Z,101591.72
2023-05-03T14:50:10.308Z,101594.03
2023-05-03T14:52:38.717Z,101591.00
2023-05-03T14:55:08.084Z,101590.66
2023-05-03T14:57:38.233Z,101592.97
2023-05-03T15:00:14.026Z,101585.28
2023-05-03T15:02:43.553Z,101583.22
2023-05-03T15:05:12.830Z,101580.53
2023-05-03T15:07:41.246Z,101579.81
2023-05-03T15:10:10.262Z,101576.88
2023-05-03T15:12:39.976Z,101575.47
2023-05-03T15:15:09.675Z,101579.34
2023-05-03T15:17:38.098Z,101577.25
2023-05-03T15:20:10.434Z,101570.00
2023-05-03T15:22:38.757Z,101567.78
2023-05-03T15:25:07.953Z,101568.53
2023-05-03T15:27:36.018Z,101561.75
2023-05-03T15:30:07.262Z,101553.72
2023-05-03T15:32:35.648Z,101551.25
2023-05-03T15:35:03.705Z,101553.91
2023-05-03T15:37:36.944Z,101550.78
2023-05-03T15:40:06.357Z,101551.56
2023-05-03T15:42:34.899Z,101550.38
2023-05-03T15:45:03.135Z,101553.06
2023-05-03T15:47:35.360Z,101547.88
2023-05-03T15:50:04.089Z,101549.06
2023-05-03T15:52:32.725Z,101549.06
2023-05-03T15:55:00.796Z,101544.31
2023-05-03T15:57:30.298Z,101542.66
2023-05-03T15:59:59.169Z,101546.56
2023-05-03T16:02:27.418Z,101540.00
2023-05-03T16:04:57.316Z,101542.88
2023-05-03T16:07:26.535Z,101532.56
2023-05-03T16:09:54.762Z,101529.72
2023-05-03T16:12:23.110Z,101534.56
2023-05-03T16:14:51.393Z,101534.50
2023-05-03T16:17:19.476Z,101531.03
2023-05-03T16:19:47.908Z,101530.44
2023-05-03T16:22:17.523Z,101522.41
2023-05-03T16:24:46.918Z,101520.50
2023-05-03T16:27:15.313Z,101523.72
2023-05-03T16:29:43.612Z,101521.25
2023-05-03T16:32:12.390Z,101515.37
2023-05-03T16:34:40.803Z,101523.81
2023-05-03T16:37:08.877Z,101524.34
2023-05-03T16:39:38.890Z,101528.03
2023-05-03T16:42:07.656Z,101515.47
2023-05-03T16:44:36.080Z,101516.00
2023-05-03T16:47:05.009Z,101514.06
2023-05-03T16:49:36.121Z,101508.25
2023-05-03T16:52:04.268Z,101512.50
2023-05-03T16:54:32.449Z,101504.22
2023-05-03T16:57:02.665Z,101508.72
2023-05-03T16:59:31.257Z,101511.94
2023-05-03T17:01:59.360Z,101512.94
2023-05-03T17:04:29.366Z,101508.19
2023-05-03T17:06:57.776Z,101508.78
2023-05-03T17:09:25.976Z,101502.50
2023-05-03T17:11:54.346Z,101515.63
2023-05-03T17:14:23.827Z,101506.12
2023-05-03T17:16:52.594Z,101509.19
2023-05-03T17:19:21.384Z,101501.34
2023-05-03T17:21:49.506Z,101508.31
2023-05-03T17:24:17.910Z,101506.94
2023-05-03T17:26:46.288Z,101504.59
2023-05-03T17:29:15.046Z,101501.87
2023-05-03T17:31:47.610Z,101499.97
2023-05-03T17:34:20.681Z,101507.56
2023-05-03T17:36:48.996Z,101500.78
2023-05-03T17:39:17.377Z,101503.72
2023-05-03T17:41:46.176Z,101504.94
2023-05-03T17:44:14.403Z,101511.84
2023-05-03T17:46:44.644Z,101510.91
2023-05-03T17:49:12.866Z,101504.69
2023-05-03T17:51:41.465Z,101503.75
2023-05-03T17:54:12.014Z,101511.87
2023-05-03T17:56:41.832Z,101506.34
2023-05-03T17:59:37.191Z,101509.69
2023-05-03T18:02:09.082Z,101510.16
2023-05-03T18:04:37.619Z,101514.81
2023-05-03T18:07:05.822Z,101509.75
2023-05-03T18:09:34.124Z,101518.28
2023-05-03T18:12:03.545Z,101517.38
2023-05-03T18:14:31.954Z,101509.25
2023-05-03T18:16:59.983Z,101521.94
2023-05-03T18:19:29.815Z,101518.94
2023-05-03T18:21:57.877Z,101516.44
2023-05-03T18:24:26.002Z,101519.38
2023-05-03T18:26:54.341Z,101523.72
2023-05-03T18:29:22.374Z,101522.31
2023-05-03T18:31:52.550Z,101523.19
2023-05-03T18:34:20.952Z,101531.97
2023-05-03T18:36:50.327Z,101524.97
2023-05-03T18:39:18.818Z,101532.00
2023-05-03T18:41:47.510Z,101531.47
2023-05-03T18:44:15.837Z,101526.03
2023-05-03T18:46:44.371Z,101524.69
2023-05-03T18:49:12.772Z,101516.16
2023-05-03T18:51:41.030Z,101522.56
2023-05-03T18:54:10.495Z,101521.84
2023-05-03T18:56:38.858Z,101529.41
2023-05-03T18:59:07.010Z,101528.56
2023-05-03T19:01:35.081Z,101531.34
2023-05-03T19:04:04.532Z,101524.19
2023-05-03T19:06:32.713Z,101525.97
2023-05-03T19:09:00.773Z,101528.03
2023-05-03T19:11:31.110Z,101528.22
2023-05-03T19:13:59.165Z,101521.22
2023-05-03T19:16:27.969Z,101525.56
2023-05-03T19:18:56.436Z,101531.81
2023-05-03T19:21:24.512Z,101525.69
2023-05-03T19:23:52.513Z,101521.13
2023-05-03T19:26:20.845Z,101522.88
2023-05-03T19:28:50.185Z,101533.31
2023-05-03T19:31:18.892Z,101529.53
2023-05-03T19:33:47.295Z,101526.38
2023-05-03T19:36:15.441Z,101530.41
2023-05-03T19:38:43.534Z,101522.00
2023-05-03T19:41:12.872Z,101522.56
2023-05-03T19:43:41.430Z,101522.19
2023-05-03T19:46:11.129Z,101526.28
2023-05-03T19:48:39.620Z,101525.03
2023-05-03T19:51:07.585Z,101527.41
2023-05-03T19:53:37.731Z,101524.63
2023-05-03T19:56:07.120Z,101525.28
2023-05-03T19:58:35.086Z,101536.41
2023-05-03T20:01:03.177Z,101530.50
2023-05-03T20:03:34.253Z,101528.56
2023-05-03T20:06:02.515Z,101531.59
2023-05-03T20:08:31.481Z,101529.28
2023-05-03T20:10:59.993Z,101530.31
2023-05-03T20:13:30.211Z,101531.72
2023-05-03T20:15:58.227Z,101535.06
2023-05-03T20:18:26.726Z,101530.34
2023-05-03T20:20:56.298Z,101536.13
2023-05-03T20:23:24.420Z,101528.63
2023-05-03T20:25:52.780Z,101535.28
2023-05-03T20:28:20.944Z,101530.28
2023-05-03T20:30:49.116Z,101535.88
2023-05-03T20:33:17.431Z,101532.59
2023-05-03T20:35:45.429Z,101526.91
2023-05-03T20:38:15.154Z,101525.53
2023-05-03T20:40:43.383Z,101527.78
2023-05-03T20:43:11.456Z,101527.31
2023-05-03T20:45:39.556Z,101527.66
2023-05-03T20:48:09.005Z,101520.06
2023-05-03T20:50:37.183Z,101525.72
2023-05-03T20:53:05.678Z,101521.53
2023-05-03T20:55:35.328Z,101519.06
2023-05-03T20:58:03.816Z,101519.38
2023-05-03T21:00:31.841Z,101515.34
2023-05-03T21:03:00.327Z,101517.28
2023-05-03T21:05:28.683Z,101516.75
2023-05-03T21:07:56.834Z,101522.47
2023-05-03T21:10:25.269Z,101522.09
2023-05-03T21:12:54.677Z,101525.81
2023-05-03T21:15:22.767Z,101520.75
2023-05-03T21:17:51.211Z,101524.56
2023-05-03T21:20:19.564Z,101513.47
2023-05-03T21:22:47.650Z,101529.56
2023-05-03T21:25:16.162Z,101521.97
2023-05-03T21:27:44.184Z,101523.16
2023-05-03T21:30:14.952Z,101522.22
2023-05-03T21:32:46.234Z,101516.34
2023-05-03T21:35:14.641Z,101520.94
2023-05-03T21:37:42.835Z,101521.13
2023-05-03T21:40:13.267Z,101517.81
2023-05-03T21:42:41.286Z,101515.47
2023-05-03T21:45:10.611Z,101514.97
2023-05-03T21:47:40.361Z,101516.97
2023-05-03T21:50:09.136Z,101512.06
2023-05-03T21:52:38.028Z,101512.50
2023-05-03T21:55:07.452Z,101512.16
2023-05-03T21:57:35.638Z,101509.03
2023-05-03T22:00:05.181Z,101506.50
2023-05-03T22:02:36.523Z,101512.97
2023-05-03T22:05:06.638Z,101504.25
2023-05-03T22:07:34.937Z,101509.22
2023-05-03T22:10:03.620Z,101506.03
2023-05-03T22:12:32.082Z,101506.41
2023-05-03T22:15:00.162Z,101506.16
2023-05-03T22:17:28.408Z,101501.53
2023-05-03T22:19:56.826Z,101502.06
2023-05-03T22:22:26.217Z,101501.34
2023-05-03T22:25:00.658Z,101502.34
2023-05-03T22:27:29.087Z,101505.06
2023-05-03T22:29:57.177Z,101506.03
2023-05-03T22:32:25.407Z,101509.69
2023-05-03T22:34:53.665Z,101506.38
2023-05-03T22:37:22.065Z,101500.25
2023-05-03T22:39:51.462Z,101505.75
2023-05-03T22:42:19.773Z,101503.31
2023-05-03T22:44:47.797Z,101499.97
2023-05-03T22:47:15.845Z,101506.38
2023-05-03T22:49:44.074Z,101503.00
2023-05-03T22:52:12.153Z,101504.94
2023-05-03T22:54:40.174Z,101505.00
2023-05-03T22:57:10.160Z,101497.84
2023-05-03T22:59:38.619Z,101496.22
2023-05-03T23:02:06.617Z,101498.06
2023-05-03T23:04:34.883Z,101492.91
2023-05-03T23:07:03.169Z,101486.94
2023-05-03T23:09:31.262Z,101493.28
2023-05-03T23:12:00.575Z,101492.50
2023-05-03T23:14:29.980Z,101488.19
2023-05-03T23:16:58.381Z,101493.66
2023-05-03T23:19:26.657Z,101494.72
2023-05-03T23:21:54.819Z,101489.72
2023-05-03T23:24:23.094Z,101483.81
2023-05-03T23:26:51.277Z,101480.59
2023-05-03T23:29:19.787Z,101480.84
2023-05-03T23:31:52.766Z,101479.38
2023-05-03T23:34:22.080Z,101474.31
2023-05-03T23:36:50.427Z,101483.22
2023-05-03T23:39:18.679Z,101480.72
2023-05-03T23:41:47.006Z,101477.28
2023-05-03T23:44:15.091Z,101477.28
2023-05-03T23:46:43.198Z,101475.56
2023-05-03T23:49:12.869Z,101480.94
2023-05-03T23:51:40.970Z,101478.34
2023-05-03T23:54:09.428Z,101479.28
2023-05-03T23:56:37.726Z,101477.50
2023-05-03T23:59:06.382Z,101472.38
